Abernant, Alabama
Current Conditions -  °F | °C
As of 3:53 PM on Tuesday 21 Oct 2014 (Local Time) from KTCL Reporting Station
Scattered Clouds Scattered Clouds  
Wind Chill: 26°   Ceiling: Unl
Heat Index: 26°   Visibility: 10mi
Dew Point: 12°   Wind: 8mph
Humidity: 42%   Direction: 290°WNW
Pressure: 29.99"   Gusts: NA
Location:  33.29°N, 87.2°W
Report Text: KTCL 212053Z 29007KT 10SM SCT055 26/12 A2999 RMK AO2 SLP155 T02610122 56015
Loading
Personal Weather Stations






























Interactive Weather Map
Tropical Storm Tracking
New forecast layout! Learn more

10-Day Weather Forecast

Advertisements
Track Severe Weather on mobile